WEATHER DATA

YESTERDAY
Time Temp. Dewp. Hum. Wind dir Wind speed Wind gust Bar. 1h Prec. 24h Prec.
00:05 7.4 5.7 89 20 0.6 1.4 998.4 2.7270 0.2000
00:15 7.4 5.7 89 18 0.3 1.1 998.7 2.4240 0.7000
00:25 7.4 5.7 89 38 0.6 0.8 998.8 2.3230 1.4000
00:35 7.4 5.7 89 18 0.3 0.8 998.9 2.4240 1.9000
00:46 7.4 5.7 89 18 0.3 0.8 998.9 2.3230 2.2000
00:56 7.4 5.7 89 315 0.3 0.6 998.9 2.1210 2.2000
01:05 7.4 5.7 89 315 0.3 0.6 999.1 1.9190 2.3000
01:15 7.4 5.7 89 18 0.3 1.1 999.4 1.9190 2.9000
01:26 7.3 5.6 89 0.3 0.8 999.3 2.1210 3.7000
01:36 7.3 5.4 88 16 0.6 1.7 999.4 2.1210 4.1000
01:46 7.3 5.4 88 27 0.6 1.1 999.5 2.3230 4.5000
01:56 7.3 5.6 89 90 0.3 1.1 999.9 2.3230 4.5000
02:07 7.3 5.6 89 45 0.3 0.6 999.8 2.6260 5.4000
02:16 7.2 5.5 89 0 0.3 0.8 999.9 2.3230 5.7000
02:26 7.2 5.3 88 2 0.6 1.4 999.7 1.8180 5.8000
02:37 7.2 5.3 88 183 0.3 0.8 1000 1.5150 6.0000
02:47 7.1 5.2 88 24 0.3 0.8 1000.2 1.5150 6.1000
02:57 7 5.2 88 40 0.3 1.1 1000.4 2.2220 7.2000
03:07 7 5.2 88 45 0.3 0.8 1000.4 2.4240 7.9000
03:18 6.9 5.1 88 45 0.6 1.1 1000.4 2.9290 8.7000
03:27 6.8 5 88 0.3 0.6 1000.7 3.0300 8.9000
03:37 6.7 4.9 88 16 0.3 0.8 1000.7 3.0300 9.0000
03:48 6.7 5 89 52 0.3 0.8 1001.1 3.3330 9.9000
03:58 6.7 5 89 15 0.6 1.1 1001 3.7370 11.2000
04:08 6.7 5 89 21 0.3 1.1 1001.1 3.3330 11.7000
04:18 6.6 4.9 89 180 0.3 0.6 1001.1 3.2320 12.0000
04:28 6.5 4.8 89 11 0.3 0.8 1001.4 3.2320 12.1000
04:38 6.5 4.8 89 18 0.3 1.1 1001.6 3.7370 12.7000
04:48 6.4 4.7 89 161 0.3 0.6 1001.5 3.2320 13.9000
04:58 6.4 4.7 89 45 0.3 0.8 1001.6 3.1310 14.3000
05:09 6.3 4.5 88 45 0.3 0.6 1001.5 2.9290 14.6000
05:19 6.3 4.5 88 18 0.3 0.8 1002 3.1310 15.2000
05:29 6.2 4.5 89 28 0.3 0.8 1002 3.8380 16.0000
05:40 6.2 4.5 89 11 0.3 0.6 1002.1 4.0400 16.8000
05:49 6.2 4.5 89 341 0.3 0.6 1002.2 3.0300 17.0000
05:59 6.1 4.3 88 135 0.3 0.8 1002.1 2.8280 17.2000
06:09 6.1 4.3 88 0.3 0.6 1002.1 2.7270 17.4000
06:20 6 4.2 88 191 0.3 0.8 1002.2 2.3230 17.5000
06:30 6 4.2 88 326 0.3 0.6 1002.6 1.6160 17.6000
06:40 6 4.2 88 198 0.3 0.6 1002.8 1.3130 18.1000
06:50 5.9 4.1 88 270 0.3 0.6 1002.6 1.2120 18.2000
07:00 6 4.2 88 39 0.3 1.1 1002.6 1.0100 18.2000
07:10 5.9 4.1 88 12 0.3 0.6 1002.9 0.9090 18.3000
07:20 5.9 4.1 88 198 0.6 1.4 1002.9 0.9090 18.4000
07:31 5.9 4.1 88 23 0.3 1.1 1002.9 0.8080 18.4000
07:41 5.9 4.1 88 12 0.6 1.7 1003.2 0.3030 18.4000
07:51 5.9 4.1 88 90 0.3 0.6 1003.4 0.4040 18.6000
08:01 5.9 4.2 89 168 0.3 0.8 1003.1 0.4040 18.7000
08:21 6.1 4.4 89 187 0.3 1.1 1003.6 0.5050 18.9000
08:31 6.2 4.5 89 180 0.8 1.9 1003.8 0.6060 19.0000
08:42 6.3 4.5 88 219 0.3 1.1 1003.6 0.4040 19.0000
09:02 6.5 4.7 88 198 0.6 1.7 1003.6 0.5050 19.2000
09:12 6.5 4.7 88 194 0.6 2.2 1003.7 0.6060 19.3000
09:22 6.6 4.6 87 228 1.1 3.3 1003.9 0.5050 19.4000
09:32 6.6 4.4 86 90 0.3 0.8 1004 0.9090 19.9000
09:42 6.6 4.6 87 26 0.3 0.8 1004.2 1.9190 21.0000
09:52 6.4 4.4 87 180 0.3 0.6 1004.4 2.2220 21.4000
10:03 6.3 4.3 87 146 0.3 0.8 1004.6 2.3230 21.6000
10:13 6.3 4.5 88 16 0.3 0.8 1004.7 2.6260 22.0000
10:23 6.4 4.6 88 180 0.3 0.8 1004.7 2.1210 22.0000
10:33 6.5 4.3 86 183 0.3 0.8 1004.6 1.0100 22.0000
10:43 6.5 4.3 86 225 0.3 0.8 1004.7 0.7070 22.0000
10:53 6.5 4.3 86 203 0.6 1.7 1004.9 0.7070 22.3000
11:03 6.6 4.4 86 185 0.6 1.9 1005.2 0.5050 22.4000
11:14 6.7 4.4 85 215 0.6 1.9 1005.3 0.6060 22.6000
11:24 6.6 4.4 86 23 0.3 0.8 1005.7 1.2120 23.2000
11:34 6.5 4.2 85 30 0.6 1.4 1006 2.4240 24.4000
11:44 6.4 4.2 86 190 0.6 2.5 1006 3.1310 25.3000
11:54 6.6 4.3 85 198 0.6 1.1 1005.9 3.0300 25.4000
12:04 6.8 4.5 85 216 0.6 1.4 1005.8 2.8280 25.4000
12:14 7.1 4.6 84 212 0.3 0.8 1005.9 2.5250 25.4000
12:25 7 4.3 83 185 0.3 0.8 1006.3 1.7170 25.5000
12:35 6.8 4.3 84 188 0.8 3.1 1006.2 0.9090 26.0000
12:45 7.1 4.6 84 212 1.1 1.9 1006.3 0.6060 26.0000
12:54 7.2 4.5 83 189 0.8 1.4 1006.3 0.6060 26.0000
13:05 7.1 4.2 82 225 0.3 1.1 1006.7 0.9090 26.3000
13:15 7 4.3 83 174 0.3 0.8 1006.8 1.3130 26.7000
13:25 6.9 4.2 83 215 0.6 1.9 1007 1.1110 26.8000
13:35 6.8 4.1 83 187 0.6 1.4 1007 1.4140 27.4000
13:46 7 4.3 83 241 0.6 1.9 1007.2 1.5150 27.5000
13:56 6.8 3.9 82 45 0.3 0.8 1007.4 2.0200 28.2000
14:05 6.5 3.8 83 190 0.3 0.8 1007.6 2.6260 29.0000
14:16 6.3 3.8 84 270 0.3 0.8 1007.5 3.2320 30.0000
14:26 6.4 3.9 84 233 0.6 1.4 1008 2.9290 30.1000
14:36 6.4 3.7 83 225 0.3 0.8 1008.2 3.1310 30.5000
14:46 6.2 3.7 84 192 0.6 1.7 1008.3 3.7370 31.5000
14:57 6.4 3.9 84 198 0.3 1.1 1008 2.9290 31.5000
15:07 6.6 3.8 82 198 0.6 1.7 1008 2.0200 31.6000
15:16 6.5 3.8 83 191 0.3 0.8 1008 1.5150 31.6000
15:27 6.4 3.7 83 303 0.3 0.8 1008.1 1.5150 31.8000
15:37 6.4 3.7 83 174 0.6 1.7 1008.4 1.1110 32.2000
15:47 6.3 3.6 83 199 0.3 1.7 1008.6 1.5150 33.0000
15:57 6.3 3.8 84 30 0.3 0.8 1008.7 1.7170 33.3000
16:08 6.4 3.9 84 210 0.3 0.8 1008.7 1.8180 33.4000
16:17 6.4 3.7 83 185 0.3 0.8 1008.6 1.8180 33.4000
16:27 6.4 3.9 84 198 0.3 0.6 1008.9 1.6160 33.5000
16:37 6.2 3.5 83 135 0.3 0.8 1009.1 1.0100 33.7000
16:48 6.1 3.4 83 315 0.3 0.8 1009.1 0.8080 33.9000
16:58 6 3.5 84 161 0.3 0.8 1009.3 0.6060 34.0000
17:08 5.8 3.3 84 28 0.6 1.7 1009.2 1.0100 34.4000
17:18 5.8 3.5 85 270 0.6 1.9 1009.5 1.3130 34.8000
17:28 5.9 3.6 85 170 0.6 2.2 1009.4 1.4140 34.9000
17:38 5.9 3.6 85 45 0.6 1.7 1009.3 1.3130 35.0000
17:48 5.8 3.3 84 23 0.6 1.1 1009.6 1.3130 35.2000
17:59 5.7 3.5 86 12 0.6 1.4 1009.6 1.4140 35.5000
18:09 5.8 3.5 85 304 0.8 1.9 1009.6 1.1110 35.6000
18:19 5.9 3.6 85 225 0.6 1.7 1009.8 0.8080 35.7000
18:29 5.9 3.7 86 210 0.3 0.6 1009.9 0.9090 35.9000
18:39 5.9 3.7 86 186 0.3 0.8 1009.8 1.0100 36.1000
18:49 5.7 3.5 86 90 0.3 1.1 1009.7 0.8080 36.1000
18:59 5.7 3.5 86 113 0.6 1.4 1009.9 0.6060 36.1000
19:10 5.6 3.4 86 205 0.6 1.7 1010.4 0.5050 36.1000
19:20 5.6 3.4 86 176 0.3 0.6 1010.5 0.5050 36.2000
19:23 5.6 3.4 86 310 0.6 3.6 1010.7 0.3030 36.2000
19:33 5.5 3.2 85 187 0.6 1.7 1010.7 0.2020 36.3000
19:43 5.5 3.2 85 39 0.3 1.1 1010.7 0.2020 36.3000
19:53 5.5 3.2 85 270 0.6 1.7 1010.8 0.2020 36.3000
20:03 5.4 3.1 85 186 0.8 1.9 1010.9 0.3030 36.4000
20:14 5.3 3.2 86 90 0.3 1.1 1011.1 0.5050 36.7000
20:24 5.3 3 85 180 0.3 0.8 1011 0.6060 36.9000
20:34 5.2 2.9 85 18 0.3 1.1 1010.7 0.6060 36.9000
20:44 5.2 3.2 87 39 0.6 1.1 1010.9 0.6060 36.9000
20:55 5.1 3.1 87 37 0.6 1.4 1011.5 0.6060 36.9000
21:04 5.2 3.1 86 164 0.8 3.1 1011.8 0.6060 37.1000
21:14 5.2 2.9 85 135 0.3 1.4 1011.9 0.6060 37.4000
21:25 5.1 3 86 45 0.3 1.1 1011.8 0.5050 37.4000
21:35 5.1 3 86 90 0.3 0.8 1012 0.5050 37.4000
21:45 5 3 87 219 0.6 1.7 1012.1 0.5050 37.4000
21:55 5.1 3 86 194 0.3 1.4 1012.4 0.5050 37.5000
22:05 5.1 3 86 149 0.3 0.8 1012.5 0.2020 37.5000
22:15 5 3 87 45 0.6 1.7 1012.2 0.3030 37.7000
22:25 5 3 87 41 0.6 1.4 1012.4 0.3030 37.7000
22:35 4.9 2.9 87 60 0.6 1.4 1012.6 0.4040 37.8000
22:46 4.9 2.9 87 153 0.3 1.1 1012.7 0.4040 37.9000
23:06 4.8 3 88 45 0.6 1.4 1012.8 0.3030 37.9000
23:16 4.8 2.8 87 45 0.6 1.7 1013 0.2020 37.9000
23:26 5 3.2 88 197 1.1 3.1 1013.4 0.2020 37.9000
23:36 5 3 87 173 0.3 0.8 1013.2 0.3030 38.1000
23:46 5 3 87 218 0.8 4.2 1013.3 0.2020 38.1000
23:55 5.2 3.2 87 207 2.2 4.4 1013.5 0.2020 38.1000

DAY STATISTIC

2018-09-23
TEMPERATURE
AVERAGE
6.2
HIGH
7.4
00:05
LOW
4.8
23:06
PRESSURE
AVERAGE
1005.9
HIGH
1013.5
23:55
LOW
998.4
00:05
DEWPOINT
AVERAGE
4.1
HIGH
5.7
00:05
LOW
2.8
23:16
HUMIDITY
AVERAGE
86
HIGH
89
00:05
LOW
82
13:05
WIND SPEED
AVERAGE
0.5
HIGH
2.2
23:55
WIND GUST
AVERAGE
1.2
HIGH
4.4
23:55
WIND DIRECTION
PREVAILING
S
30.7%
N
15.0
NE
21.4
E
4.3
SE
5.0
S
30.7
SW
13.6
W
2.9
NW
5.0
PRECIPITATION
RAIN HOUR
4.0
RAIN DAY
38.1
TEMPERATURE (°C)
LOW
4.8
HIGH
7.4
AVERAGE
6.2
PRESSURE (hpa)
LOW
998.4
HIGH
1013.5
AVERAGE
1005.9
DEVICE